sensor_id;sensor_type;location;lat;lon;timestamp;P1;durP1;ratioP1;P2;durP2;ratioP2
69161;SDS011;56269;51.738;21.652;2023-03-01T00:01:24;54.95;;;19.15;;
69161;SDS011;56269;51.738;21.652;2023-03-01T00:03:52;51.05;;;18.88;;
69161;SDS011;56269;51.738;21.652;2023-03-01T00:06:20;62.42;;;21.55;;
69161;SDS011;56269;51.738;21.652;2023-03-01T00:08:47;58.58;;;21.38;;
69161;SDS011;56269;51.738;21.652;2023-03-01T00:13:42;58.45;;;20.42;;
69161;SDS011;56269;51.738;21.652;2023-03-01T00:16:11;60.88;;;21.00;;
69161;SDS011;56269;51.738;21.652;2023-03-01T00:18:40;57.45;;;21.30;;
69161;SDS011;56269;51.738;21.652;2023-03-01T00:21:07;58.38;;;20.85;;
69161;SDS011;56269;51.738;21.652;2023-03-01T00:23:33;57.95;;;20.80;;
69161;SDS011;56269;51.738;21.652;2023-03-01T00:26:01;64.50;;;21.60;;
69161;SDS011;56269;51.738;21.652;2023-03-01T00:28:27;38.85;;;16.00;;
69161;SDS011;56269;51.738;21.652;2023-03-01T00:30:54;49.28;;;18.35;;
69161;SDS011;56269;51.738;21.652;2023-03-01T00:33:20;53.03;;;20.50;;
69161;SDS011;56269;51.738;21.652;2023-03-01T00:35:46;55.25;;;20.98;;
69161;SDS011;56269;51.738;21.652;2023-03-01T00:38:12;54.63;;;19.73;;
69161;SDS011;56269;51.738;21.652;2023-03-01T00:40:38;52.45;;;19.92;;
69161;SDS011;56269;51.738;21.652;2023-03-01T00:43:04;54.88;;;19.23;;
69161;SDS011;56269;51.738;21.652;2023-03-01T00:45:32;59.03;;;21.38;;
69161;SDS011;56269;51.738;21.652;2023-03-01T00:47:58;33.33;;;13.30;;
69161;SDS011;56269;51.738;21.652;2023-03-01T00:50:25;50.72;;;18.35;;
69161;SDS011;56269;51.738;21.652;2023-03-01T00:52:54;34.78;;;13.35;;
69161;SDS011;56269;51.738;21.652;2023-03-01T00:55:22;46.58;;;17.48;;
69161;SDS011;56269;51.738;21.652;2023-03-01T00:57:48;55.47;;;19.55;;
69161;SDS011;56269;51.738;21.652;2023-03-01T01:00:15;52.95;;;18.42;;
69161;SDS011;56269;51.738;21.652;2023-03-01T01:02:41;49.13;;;17.38;;
69161;SDS011;56269;51.738;21.652;2023-03-01T01:05:08;51.70;;;16.83;;
69161;SDS011;56269;51.738;21.652;2023-03-01T01:07:34;52.55;;;18.65;;
69161;SDS011;56269;51.738;21.652;2023-03-01T01:10:01;57.10;;;19.88;;
69161;SDS011;56269;51.738;21.652;2023-03-01T01:12:27;52.20;;;19.58;;
69161;SDS011;56269;51.738;21.652;2023-03-01T01:14:54;53.30;;;20.67;;
69161;SDS011;56269;51.738;21.652;2023-03-01T01:17:20;58.63;;;19.95;;
69161;SDS011;56269;51.738;21.652;2023-03-01T01:19:46;53.33;;;20.88;;
69161;SDS011;56269;51.738;21.652;2023-03-01T01:22:12;67.35;;;22.35;;
69161;SDS011;56269;51.738;21.652;2023-03-01T01:24:38;55.95;;;20.02;;
69161;SDS011;56269;51.738;21.652;2023-03-01T01:27:05;58.42;;;19.52;;
69161;SDS011;56269;51.738;21.652;2023-03-01T01:29:33;56.97;;;19.20;;
69161;SDS011;56269;51.738;21.652;2023-03-01T01:31:59;52.45;;;18.70;;
69161;SDS011;56269;51.738;21.652;2023-03-01T01:34:25;50.80;;;19.65;;
69161;SDS011;56269;51.738;21.652;2023-03-01T01:36:52;47.47;;;17.92;;
69161;SDS011;56269;51.738;21.652;2023-03-01T01:39:22;46.55;;;17.48;;
69161;SDS011;56269;51.738;21.652;2023-03-01T01:41:48;60.45;;;21.65;;
69161;SDS011;56269;51.738;21.652;2023-03-01T01:50:04;53.88;;;20.30;;
69161;SDS011;56269;51.738;21.652;2023-03-01T01:52:34;54.47;;;19.85;;
69161;SDS011;56269;51.738;21.652;2023-03-01T01:55:07;60.95;;;21.15;;
69161;SDS011;56269;51.738;21.652;2023-03-01T01:57:38;49.45;;;19.50;;
69161;SDS011;56269;51.738;21.652;2023-03-01T02:00:14;52.72;;;20.40;;
69161;SDS011;56269;51.738;21.652;2023-03-01T02:02:46;50.30;;;19.13;;
69161;SDS011;56269;51.738;21.652;2023-03-01T02:05:20;46.95;;;17.88;;
69161;SDS011;56269;51.738;21.652;2023-03-01T02:08:11;53.95;;;18.63;;
69161;SDS011;56269;51.738;21.652;2023-03-01T02:10:39;52.60;;;18.67;;
69161;SDS011;56269;51.738;21.652;2023-03-01T02:13:06;51.40;;;18.63;;
69161;SDS011;56269;51.738;21.652;2023-03-01T02:15:34;56.33;;;19.27;;
69161;SDS011;56269;51.738;21.652;2023-03-01T02:18:02;53.15;;;19.67;;
69161;SDS011;56269;51.738;21.652;2023-03-01T02:20:33;46.92;;;17.92;;
69161;SDS011;56269;51.738;21.652;2023-03-01T02:23:06;49.75;;;18.50;;
69161;SDS011;56269;51.738;21.652;2023-03-01T02:25:36;52.63;;;20.65;;
69161;SDS011;56269;51.738;21.652;2023-03-01T02:30:46;47.03;;;18.73;;
69161;SDS011;56269;51.738;21.652;2023-03-01T02:33:34;44.22;;;17.83;;
69161;SDS011;56269;51.738;21.652;2023-03-01T02:36:12;52.22;;;18.05;;
69161;SDS011;56269;51.738;21.652;2023-03-01T02:38:43;46.95;;;17.63;;
69161;SDS011;56269;51.738;21.652;2023-03-01T02:41:10;51.55;;;18.33;;
69161;SDS011;56269;51.738;21.652;2023-03-01T02:43:38;43.53;;;16.63;;
69161;SDS011;56269;51.738;21.652;2023-03-01T02:46:16;44.88;;;16.50;;
69161;SDS011;56269;51.738;21.652;2023-03-01T02:48:45;44.53;;;16.83;;
69161;SDS011;56269;51.738;21.652;2023-03-01T02:56:43;46.30;;;18.10;;
69161;SDS011;56269;51.738;21.652;2023-03-01T02:59:14;55.40;;;18.63;;
69161;SDS011;56269;51.738;21.652;2023-03-01T03:01:43;56.70;;;17.95;;
69161;SDS011;56269;51.738;21.652;2023-03-01T03:04:10;50.85;;;18.40;;
69161;SDS011;56269;51.738;21.652;2023-03-01T03:06:44;60.42;;;19.48;;
69161;SDS011;56269;51.738;21.652;2023-03-01T03:09:12;51.00;;;19.83;;
69161;SDS011;56269;51.738;21.652;2023-03-01T03:11:39;55.20;;;18.63;;
69161;SDS011;56269;51.738;21.652;2023-03-01T03:14:07;24.83;;;9.35;;
69161;SDS011;56269;51.738;21.652;2023-03-01T03:16:42;45.17;;;17.38;;
69161;SDS011;56269;51.738;21.652;2023-03-01T03:19:10;33.45;;;12.05;;
69161;SDS011;56269;51.738;21.652;2023-03-01T03:21:36;30.30;;;11.18;;
69161;SDS011;56269;51.738;21.652;2023-03-01T03:24:03;48.60;;;17.38;;
69161;SDS011;56269;51.738;21.652;2023-03-01T03:26:31;43.53;;;16.40;;
69161;SDS011;56269;51.738;21.652;2023-03-01T03:28:57;34.90;;;14.77;;
69161;SDS011;56269;51.738;21.652;2023-03-01T03:31:24;47.05;;;16.48;;
69161;SDS011;56269;51.738;21.652;2023-03-01T03:33:50;40.70;;;14.07;;
69161;SDS011;56269;51.738;21.652;2023-03-01T03:36:18;40.55;;;14.50;;
69161;SDS011;56269;51.738;21.652;2023-03-01T03:38:46;47.22;;;17.35;;
69161;SDS011;56269;51.738;21.652;2023-03-01T03:41:14;46.92;;;17.33;;
69161;SDS011;56269;51.738;21.652;2023-03-01T03:43:41;35.85;;;14.75;;
69161;SDS011;56269;51.738;21.652;2023-03-01T03:46:09;51.10;;;17.20;;
69161;SDS011;56269;51.738;21.652;2023-03-01T03:48:38;49.50;;;17.50;;
69161;SDS011;56269;51.738;21.652;2023-03-01T03:51:06;53.88;;;19.23;;
69161;SDS011;56269;51.738;21.652;2023-03-01T03:53:35;49.85;;;18.23;;
69161;SDS011;56269;51.738;21.652;2023-03-01T03:56:02;53.72;;;18.10;;
69161;SDS011;56269;51.738;21.652;2023-03-01T03:58:28;53.28;;;18.35;;
69161;SDS011;56269;51.738;21.652;2023-03-01T04:00:55;44.85;;;16.25;;
69161;SDS011;56269;51.738;21.652;2023-03-01T04:03:23;52.75;;;19.00;;
69161;SDS011;56269;51.738;21.652;2023-03-01T04:05:50;48.45;;;18.30;;
69161;SDS011;56269;51.738;21.652;2023-03-01T04:08:20;43.13;;;16.08;;
69161;SDS011;56269;51.738;21.652;2023-03-01T04:10:49;58.33;;;21.25;;
69161;SDS011;56269;51.738;21.652;2023-03-01T04:13:18;49.92;;;18.77;;
69161;SDS011;56269;51.738;21.652;2023-03-01T04:15:51;55.33;;;19.40;;
69161;SDS011;56269;51.738;21.652;2023-03-01T04:18:19;45.60;;;18.30;;
69161;SDS011;56269;51.738;21.652;2023-03-01T04:20:47;46.63;;;15.15;;
69161;SDS011;56269;51.738;21.652;2023-03-01T04:23:15;55.33;;;19.50;;
69161;SDS011;56269;51.738;21.652;2023-03-01T04:25:46;40.72;;;14.10;;
69161;SDS011;56269;51.738;21.652;2023-03-01T04:28:22;33.80;;;10.65;;
69161;SDS011;56269;51.738;21.652;2023-03-01T04:30:51;41.95;;;16.35;;
69161;SDS011;56269;51.738;21.652;2023-03-01T04:33:18;32.88;;;12.18;;
69161;SDS011;56269;51.738;21.652;2023-03-01T04:35:45;48.47;;;17.83;;
69161;SDS011;56269;51.738;21.652;2023-03-01T04:38:11;32.42;;;12.32;;
69161;SDS011;56269;51.738;21.652;2023-03-01T04:40:37;61.10;;;22.17;;
69161;SDS011;56269;51.738;21.652;2023-03-01T04:43:03;42.63;;;17.50;;
69161;SDS011;56269;51.738;21.652;2023-03-01T04:45:31;50.03;;;18.60;;
69161;SDS011;56269;51.738;21.652;2023-03-01T04:47:57;30.17;;;12.73;;
69161;SDS011;56269;51.738;21.652;2023-03-01T04:50:24;52.58;;;19.17;;
69161;SDS011;56269;51.738;21.652;2023-03-01T04:52:51;41.38;;;15.45;;
69161;SDS011;56269;51.738;21.652;2023-03-01T04:55:18;34.90;;;12.07;;
69161;SDS011;56269;51.738;21.652;2023-03-01T04:57:44;53.25;;;18.30;;
69161;SDS011;56269;51.738;21.652;2023-03-01T05:00:12;55.10;;;18.88;;
69161;SDS011;56269;51.738;21.652;2023-03-01T05:02:52;55.80;;;19.05;;
69161;SDS011;56269;51.738;21.652;2023-03-01T05:05:25;52.67;;;18.63;;
69161;SDS011;56269;51.738;21.652;2023-03-01T05:07:53;51.83;;;19.35;;
69161;SDS011;56269;51.738;21.652;2023-03-01T05:10:24;27.88;;;10.32;;
69161;SDS011;56269;51.738;21.652;2023-03-01T05:12:51;57.33;;;18.90;;
69161;SDS011;56269;51.738;21.652;2023-03-01T05:15:18;47.92;;;16.13;;
69161;SDS011;56269;51.738;21.652;2023-03-01T05:17:47;43.67;;;15.27;;
69161;SDS011;56269;51.738;21.652;2023-03-01T05:20:14;48.17;;;17.90;;
69161;SDS011;56269;51.738;21.652;2023-03-01T05:22:40;27.88;;;11.63;;
69161;SDS011;56269;51.738;21.652;2023-03-01T05:25:07;36.05;;;13.65;;
69161;SDS011;56269;51.738;21.652;2023-03-01T05:27:34;21.08;;;9.48;;
69161;SDS011;56269;51.738;21.652;2023-03-01T05:30:01;36.15;;;13.23;;
69161;SDS011;56269;51.738;21.652;2023-03-01T05:32:42;42.10;;;15.23;;
69161;SDS011;56269;51.738;21.652;2023-03-01T05:35:14;32.72;;;12.25;;
69161;SDS011;56269;51.738;21.652;2023-03-01T05:37:42;17.90;;;6.65;;
69161;SDS011;56269;51.738;21.652;2023-03-01T05:40:10;35.13;;;13.50;;
69161;SDS011;56269;51.738;21.652;2023-03-01T05:42:47;20.67;;;7.68;;
69161;SDS011;56269;51.738;21.652;2023-03-01T05:45:23;21.52;;;9.27;;
69161;SDS011;56269;51.738;21.652;2023-03-01T05:47:50;17.48;;;8.25;;
69161;SDS011;56269;51.738;21.652;2023-03-01T05:50:21;21.33;;;7.32;;
69161;SDS011;56269;51.738;21.652;2023-03-01T05:52:50;23.13;;;11.27;;
69161;SDS011;56269;51.738;21.652;2023-03-01T05:55:18;30.33;;;10.90;;
69161;SDS011;56269;51.738;21.652;2023-03-01T05:57:46;33.40;;;11.70;;
69161;SDS011;56269;51.738;21.652;2023-03-01T06:00:14;35.47;;;11.68;;
69161;SDS011;56269;51.738;21.652;2023-03-01T06:02:41;31.67;;;11.65;;
69161;SDS011;56269;51.738;21.652;2023-03-01T06:05:08;38.92;;;14.45;;
69161;SDS011;56269;51.738;21.652;2023-03-01T06:07:36;41.00;;;13.18;;
69161;SDS011;56269;51.738;21.652;2023-03-01T06:10:06;25.52;;;9.32;;
69161;SDS011;56269;51.738;21.652;2023-03-01T06:12:36;45.50;;;16.67;;
69161;SDS011;56269;51.738;21.652;2023-03-01T06:15:04;37.65;;;12.90;;
69161;SDS011;56269;51.738;21.652;2023-03-01T06:17:32;39.30;;;15.45;;
69161;SDS011;56269;51.738;21.652;2023-03-01T06:20:04;27.90;;;11.33;;
69161;SDS011;56269;51.738;21.652;2023-03-01T06:22:31;40.40;;;15.00;;
69161;SDS011;56269;51.738;21.652;2023-03-01T06:24:58;37.25;;;13.20;;
69161;SDS011;56269;51.738;21.652;2023-03-01T06:27:24;18.90;;;7.63;;
69161;SDS011;56269;51.738;21.652;2023-03-01T06:29:50;21.65;;;7.20;;
69161;SDS011;56269;51.738;21.652;2023-03-01T06:32:16;16.05;;;7.00;;
69161;SDS011;56269;51.738;21.652;2023-03-01T06:34:42;18.52;;;7.20;;
69161;SDS011;56269;51.738;21.652;2023-03-01T06:37:08;16.45;;;6.30;;
69161;SDS011;56269;51.738;21.652;2023-03-01T06:39:35;33.00;;;11.50;;
69161;SDS011;56269;51.738;21.652;2023-03-01T06:42:01;20.50;;;6.35;;
69161;SDS011;56269;51.738;21.652;2023-03-01T06:44:27;14.23;;;6.57;;
69161;SDS011;56269;51.738;21.652;2023-03-01T06:46:53;18.02;;;6.95;;
69161;SDS011;56269;51.738;21.652;2023-03-01T06:49:20;23.60;;;8.38;;
69161;SDS011;56269;51.738;21.652;2023-03-01T06:51:46;16.27;;;7.55;;
69161;SDS011;56269;51.738;21.652;2023-03-01T06:54:13;23.52;;;9.20;;
69161;SDS011;56269;51.738;21.652;2023-03-01T06:56:39;28.97;;;11.37;;
69161;SDS011;56269;51.738;21.652;2023-03-01T06:59:05;23.52;;;9.68;;
69161;SDS011;56269;51.738;21.652;2023-03-01T07:01:31;16.83;;;6.70;;
69161;SDS011;56269;51.738;21.652;2023-03-01T07:03:58;20.38;;;7.97;;
69161;SDS011;56269;51.738;21.652;2023-03-01T07:06:24;22.23;;;8.87;;
69161;SDS011;56269;51.738;21.652;2023-03-01T07:08:50;19.80;;;7.68;;
69161;SDS011;56269;51.738;21.652;2023-03-01T07:11:16;20.30;;;8.48;;
69161;SDS011;56269;51.738;21.652;2023-03-01T07:13:43;16.15;;;6.15;;
69161;SDS011;56269;51.738;21.652;2023-03-01T07:16:09;26.13;;;10.80;;
69161;SDS011;56269;51.738;21.652;2023-03-01T07:18:35;19.63;;;7.37;;
69161;SDS011;56269;51.738;21.652;2023-03-01T07:21:08;25.92;;;9.82;;
69161;SDS011;56269;51.738;21.652;2023-03-01T07:23:37;11.25;;;5.35;;
69161;SDS011;56269;51.738;21.652;2023-03-01T07:26:03;15.68;;;3.88;;
69161;SDS011;56269;51.738;21.652;2023-03-01T07:28:29;18.63;;;7.83;;
69161;SDS011;56269;51.738;21.652;2023-03-01T07:31:00;14.05;;;5.50;;
69161;SDS011;56269;51.738;21.652;2023-03-01T07:33:28;13.13;;;6.65;;
69161;SDS011;56269;51.738;21.652;2023-03-01T07:35:58;17.08;;;5.93;;
69161;SDS011;56269;51.738;21.652;2023-03-01T07:38:25;16.08;;;6.32;;
69161;SDS011;56269;51.738;21.652;2023-03-01T07:40:52;20.67;;;8.13;;
69161;SDS011;56269;51.738;21.652;2023-03-01T07:43:18;10.35;;;5.03;;
69161;SDS011;56269;51.738;21.652;2023-03-01T07:45:46;17.92;;;7.55;;
69161;SDS011;56269;51.738;21.652;2023-03-01T07:48:12;23.80;;;7.95;;
69161;SDS011;56269;51.738;21.652;2023-03-01T07:50:38;21.90;;;8.43;;
69161;SDS011;56269;51.738;21.652;2023-03-01T07:53:04;19.17;;;8.37;;
69161;SDS011;56269;51.738;21.652;2023-03-01T07:55:30;22.33;;;8.00;;
69161;SDS011;56269;51.738;21.652;2023-03-01T07:57:57;13.30;;;5.47;;
69161;SDS011;56269;51.738;21.652;2023-03-01T08:00:23;18.38;;;7.13;;
69161;SDS011;56269;51.738;21.652;2023-03-01T08:02:49;16.27;;;7.27;;
69161;SDS011;56269;51.738;21.652;2023-03-01T08:05:15;22.02;;;7.60;;
69161;SDS011;56269;51.738;21.652;2023-03-01T08:07:42;16.63;;;7.55;;
69161;SDS011;56269;51.738;21.652;2023-03-01T08:10:08;18.25;;;8.07;;
69161;SDS011;56269;51.738;21.652;2023-03-01T08:12:35;12.77;;;5.65;;
69161;SDS011;56269;51.738;21.652;2023-03-01T08:15:01;19.73;;;7.47;;
69161;SDS011;56269;51.738;21.652;2023-03-01T08:17:27;16.35;;;7.88;;
69161;SDS011;56269;51.738;21.652;2023-03-01T08:19:53;18.50;;;7.05;;
69161;SDS011;56269;51.738;21.652;2023-03-01T08:22:19;12.65;;;5.20;;
69161;SDS011;56269;51.738;21.652;2023-03-01T08:24:46;13.70;;;5.83;;
69161;SDS011;56269;51.738;21.652;2023-03-01T08:27:12;13.27;;;5.32;;
69161;SDS011;56269;51.738;21.652;2023-03-01T08:29:40;20.15;;;7.15;;
69161;SDS011;56269;51.738;21.652;2023-03-01T08:32:07;23.63;;;9.00;;
69161;SDS011;56269;51.738;21.652;2023-03-01T08:34:33;20.00;;;7.68;;
69161;SDS011;56269;51.738;21.652;2023-03-01T08:37:01;13.83;;;5.57;;
69161;SDS011;56269;51.738;21.652;2023-03-01T08:39:27;16.42;;;6.47;;
69161;SDS011;56269;51.738;21.652;2023-03-01T08:41:53;15.30;;;5.97;;
69161;SDS011;56269;51.738;21.652;2023-03-01T08:44:19;15.00;;;6.47;;
69161;SDS011;56269;51.738;21.652;2023-03-01T08:46:46;21.33;;;7.33;;
69161;SDS011;56269;51.738;21.652;2023-03-01T08:49:13;18.45;;;6.78;;
69161;SDS011;56269;51.738;21.652;2023-03-01T08:51:43;14.80;;;5.22;;
69161;SDS011;56269;51.738;21.652;2023-03-01T08:54:13;21.77;;;7.65;;
69161;SDS011;56269;51.738;21.652;2023-03-01T08:56:44;23.98;;;8.18;;
69161;SDS011;56269;51.738;21.652;2023-03-01T08:59:11;12.57;;;4.77;;
69161;SDS011;56269;51.738;21.652;2023-03-01T09:01:38;14.45;;;5.78;;
69161;SDS011;56269;51.738;21.652;2023-03-01T09:04:05;12.18;;;5.60;;
69161;SDS011;56269;51.738;21.652;2023-03-01T09:06:33;15.02;;;6.32;;
69161;SDS011;56269;51.738;21.652;2023-03-01T09:09:00;11.15;;;4.82;;
69161;SDS011;56269;51.738;21.652;2023-03-01T09:11:27;15.10;;;6.07;;
69161;SDS011;56269;51.738;21.652;2023-03-01T09:13:54;18.30;;;7.18;;
69161;SDS011;56269;51.738;21.652;2023-03-01T09:16:20;19.63;;;6.65;;
69161;SDS011;56269;51.738;21.652;2023-03-01T09:18:53;21.38;;;8.77;;
69161;SDS011;56269;51.738;21.652;2023-03-01T09:21:21;15.63;;;5.80;;
69161;SDS011;56269;51.738;21.652;2023-03-01T09:23:48;17.10;;;7.03;;
69161;SDS011;56269;51.738;21.652;2023-03-01T09:26:16;15.95;;;5.60;;
69161;SDS011;56269;51.738;21.652;2023-03-01T09:28:48;14.32;;;5.82;;
69161;SDS011;56269;51.738;21.652;2023-03-01T09:31:16;18.92;;;7.15;;
69161;SDS011;56269;51.738;21.652;2023-03-01T09:33:45;11.32;;;3.90;;
69161;SDS011;56269;51.738;21.652;2023-03-01T09:36:15;15.87;;;5.93;;
69161;SDS011;56269;51.738;21.652;2023-03-01T09:38:42;12.90;;;5.10;;
69161;SDS011;56269;51.738;21.652;2023-03-01T09:44:10;21.55;;;7.63;;
69161;SDS011;56269;51.738;21.652;2023-03-01T09:46:52;12.27;;;4.72;;
69161;SDS011;56269;51.738;21.652;2023-03-01T09:49:19;16.83;;;7.10;;
69161;SDS011;56269;51.738;21.652;2023-03-01T09:52:00;12.85;;;4.68;;
69161;SDS011;56269;51.738;21.652;2023-03-01T09:54:35;13.40;;;5.65;;
69161;SDS011;56269;51.738;21.652;2023-03-01T10:05:19;14.13;;;5.35;;
69161;SDS011;56269;51.738;21.652;2023-03-01T10:08:01;15.65;;;5.88;;
69161;SDS011;56269;51.738;21.652;2023-03-01T10:10:39;11.75;;;4.40;;
69161;SDS011;56269;51.738;21.652;2023-03-01T10:13:19;20.73;;;7.57;;
69161;SDS011;56269;51.738;21.652;2023-03-01T10:15:52;11.70;;;5.23;;
69161;SDS011;56269;51.738;21.652;2023-03-01T10:18:25;12.95;;;5.07;;
69161;SDS011;56269;51.738;21.652;2023-03-01T10:21:00;15.52;;;5.78;;
69161;SDS011;56269;51.738;21.652;2023-03-01T10:23:45;19.27;;;7.25;;
69161;SDS011;56269;51.738;21.652;2023-03-01T10:29:03;16.20;;;6.00;;
69161;SDS011;56269;51.738;21.652;2023-03-01T10:31:38;18.40;;;7.15;;
69161;SDS011;56269;51.738;21.652;2023-03-01T10:34:16;12.10;;;4.35;;
69161;SDS011;56269;51.738;21.652;2023-03-01T10:36:47;17.83;;;7.50;;
69161;SDS011;56269;51.738;21.652;2023-03-01T10:39:17;17.48;;;7.65;;
69161;SDS011;56269;51.738;21.652;2023-03-01T10:42:18;10.30;;;3.93;;
69161;SDS011;56269;51.738;21.652;2023-03-01T10:44:46;12.10;;;4.85;;
69161;SDS011;56269;51.738;21.652;2023-03-01T10:47:21;10.57;;;4.72;;
69161;SDS011;56269;51.738;21.652;2023-03-01T10:49:54;12.63;;;3.40;;
69161;SDS011;56269;51.738;21.652;2023-03-01T10:52:24;15.95;;;5.57;;
69161;SDS011;56269;51.738;21.652;2023-03-01T10:54:54;13.83;;;6.30;;
69161;SDS011;56269;51.738;21.652;2023-03-01T10:57:34;14.73;;;5.93;;
69161;SDS011;56269;51.738;21.652;2023-03-01T11:00:19;8.70;;;3.83;;
69161;SDS011;56269;51.738;21.652;2023-03-01T11:02:50;9.02;;;3.25;;
69161;SDS011;56269;51.738;21.652;2023-03-01T11:09:20;15.13;;;6.13;;
69161;SDS011;56269;51.738;21.652;2023-03-01T11:11:53;16.23;;;6.22;;
69161;SDS011;56269;51.738;21.652;2023-03-01T11:14:21;11.48;;;4.30;;
69161;SDS011;56269;51.738;21.652;2023-03-01T11:17:11;11.05;;;4.47;;
69161;SDS011;56269;51.738;21.652;2023-03-01T11:19:41;12.15;;;4.57;;
69161;SDS011;56269;51.738;21.652;2023-03-01T11:22:18;15.53;;;6.70;;
69161;SDS011;56269;51.738;21.652;2023-03-01T11:24:47;11.50;;;4.25;;
69161;SDS011;56269;51.738;21.652;2023-03-01T11:30:05;16.90;;;6.30;;
69161;SDS011;56269;51.738;21.652;2023-03-01T11:32:53;10.18;;;4.10;;
69161;SDS011;56269;51.738;21.652;2023-03-01T11:35:28;10.23;;;3.70;;
69161;SDS011;56269;51.738;21.652;2023-03-01T11:38:03;10.05;;;3.30;;
69161;SDS011;56269;51.738;21.652;2023-03-01T11:43:26;11.05;;;4.47;;
69161;SDS011;56269;51.738;21.652;2023-03-01T11:48:52;14.00;;;4.90;;
69161;SDS011;56269;51.738;21.652;2023-03-01T12:10:43;13.57;;;5.10;;
69161;SDS011;56269;51.738;21.652;2023-03-01T12:16:17;10.17;;;4.10;;
69161;SDS011;56269;51.738;21.652;2023-03-01T12:24:49;9.70;;;3.33;;
69161;SDS011;56269;51.738;21.652;2023-03-01T12:27:40;11.38;;;3.45;;
69161;SDS011;56269;51.738;21.652;2023-03-01T12:33:27;6.22;;;2.20;;
69161;SDS011;56269;51.738;21.652;2023-03-01T12:36:09;10.50;;;4.47;;
69161;SDS011;56269;51.738;21.652;2023-03-01T12:38:42;8.98;;;2.97;;
69161;SDS011;56269;51.738;21.652;2023-03-01T12:41:31;10.23;;;4.22;;
69161;SDS011;56269;51.738;21.652;2023-03-01T12:47:14;11.60;;;4.50;;
69161;SDS011;56269;51.738;21.652;2023-03-01T12:49:56;6.88;;;2.95;;
69161;SDS011;56269;51.738;21.652;2023-03-01T12:52:29;9.27;;;3.90;;
69161;SDS011;56269;51.738;21.652;2023-03-01T12:58:03;11.13;;;4.70;;
69161;SDS011;56269;51.738;21.652;2023-03-01T13:00:59;8.00;;;3.08;;
69161;SDS011;56269;51.738;21.652;2023-03-01T13:03:29;10.90;;;4.28;;
69161;SDS011;56269;51.738;21.652;2023-03-01T13:06:19;11.25;;;3.83;;
69161;SDS011;56269;51.738;21.652;2023-03-01T13:08:49;9.30;;;3.60;;
69161;SDS011;56269;51.738;21.652;2023-03-01T13:11:26;7.90;;;2.30;;
69161;SDS011;56269;51.738;21.652;2023-03-01T13:13:52;10.73;;;3.72;;
69161;SDS011;56269;51.738;21.652;2023-03-01T13:16:44;10.63;;;3.50;;
69161;SDS011;56269;51.738;21.652;2023-03-01T13:19:21;9.55;;;3.95;;
69161;SDS011;56269;51.738;21.652;2023-03-01T13:21:50;11.75;;;4.63;;
69161;SDS011;56269;51.738;21.652;2023-03-01T13:29:47;7.90;;;2.58;;
69161;SDS011;56269;51.738;21.652;2023-03-01T13:35:40;6.40;;;2.30;;
69161;SDS011;56269;51.738;21.652;2023-03-01T13:37:47;8.33;;;3.30;;
69161;SDS011;56269;51.738;21.652;2023-03-01T13:42:45;11.68;;;4.13;;
69161;SDS011;56269;51.738;21.652;2023-03-01T13:45:20;8.35;;;3.20;;
69161;SDS011;56269;51.738;21.652;2023-03-01T13:47:48;9.43;;;3.60;;
69161;SDS011;56269;51.738;21.652;2023-03-01T13:50:23;10.27;;;3.97;;
69161;SDS011;56269;51.738;21.652;2023-03-01T13:53:11;7.60;;;2.45;;
69161;SDS011;56269;51.738;21.652;2023-03-01T13:55:54;7.20;;;2.25;;
69161;SDS011;56269;51.738;21.652;2023-03-01T13:58:26;7.43;;;2.63;;
69161;SDS011;56269;51.738;21.652;2023-03-01T14:00:55;9.25;;;3.72;;
69161;SDS011;56269;51.738;21.652;2023-03-01T14:03:33;8.83;;;3.60;;
69161;SDS011;56269;51.738;21.652;2023-03-01T14:06:18;8.93;;;3.33;;
69161;SDS011;56269;51.738;21.652;2023-03-01T14:08:48;8.35;;;2.97;;
69161;SDS011;56269;51.738;21.652;2023-03-01T14:13:52;8.30;;;2.83;;
69161;SDS011;56269;51.738;21.652;2023-03-01T14:19:15;8.98;;;2.83;;
69161;SDS011;56269;51.738;21.652;2023-03-01T14:21:57;8.27;;;3.40;;
69161;SDS011;56269;51.738;21.652;2023-03-01T14:24:49;8.23;;;3.13;;
69161;SDS011;56269;51.738;21.652;2023-03-01T14:27:18;8.27;;;3.17;;
69161;SDS011;56269;51.738;21.652;2023-03-01T14:29:54;11.47;;;3.63;;
69161;SDS011;56269;51.738;21.652;2023-03-01T14:32:24;9.98;;;3.60;;
69161;SDS011;56269;51.738;21.652;2023-03-01T14:34:52;9.43;;;3.40;;
69161;SDS011;56269;51.738;21.652;2023-03-01T14:37:29;9.52;;;3.08;;
69161;SDS011;56269;51.738;21.652;2023-03-01T14:39:58;7.90;;;2.78;;
69161;SDS011;56269;51.738;21.652;2023-03-01T14:42:27;10.00;;;3.23;;
69161;SDS011;56269;51.738;21.652;2023-03-01T14:44:56;10.98;;;3.60;;
69161;SDS011;56269;51.738;21.652;2023-03-01T14:47:32;10.80;;;3.47;;
69161;SDS011;56269;51.738;21.652;2023-03-01T14:52:36;10.65;;;3.40;;
69161;SDS011;56269;51.738;21.652;2023-03-01T14:55:05;9.07;;;3.63;;
69161;SDS011;56269;51.738;21.652;2023-03-01T14:57:43;12.27;;;3.83;;
69161;SDS011;56269;51.738;21.652;2023-03-01T15:00:11;6.25;;;2.95;;
69161;SDS011;56269;51.738;21.652;2023-03-01T15:02:48;11.80;;;3.78;;
69161;SDS011;56269;51.738;21.652;2023-03-01T15:05:18;8.48;;;3.15;;
69161;SDS011;56269;51.738;21.652;2023-03-01T15:08:05;11.27;;;4.43;;
69161;SDS011;56269;51.738;21.652;2023-03-01T15:10:34;11.32;;;4.40;;
69161;SDS011;56269;51.738;21.652;2023-03-01T15:13:20;11.38;;;3.75;;
69161;SDS011;56269;51.738;21.652;2023-03-01T15:15:51;12.68;;;3.75;;
69161;SDS011;56269;51.738;21.652;2023-03-01T15:18:20;10.65;;;4.28;;
69161;SDS011;56269;51.738;21.652;2023-03-01T15:20:49;13.33;;;4.50;;
69161;SDS011;56269;51.738;21.652;2023-03-01T15:23:20;9.70;;;3.72;;
69161;SDS011;56269;51.738;21.652;2023-03-01T15:25:55;12.63;;;5.15;;
69161;SDS011;56269;51.738;21.652;2023-03-01T15:28:43;11.98;;;5.35;;
69161;SDS011;56269;51.738;21.652;2023-03-01T15:31:22;16.35;;;5.50;;
69161;SDS011;56269;51.738;21.652;2023-03-01T15:33:50;13.03;;;5.07;;
69161;SDS011;56269;51.738;21.652;2023-03-01T15:36:31;11.18;;;4.53;;
69161;SDS011;56269;51.738;21.652;2023-03-01T15:39:30;10.60;;;4.30;;
69161;SDS011;56269;51.738;21.652;2023-03-01T15:42:12;12.05;;;3.90;;
69161;SDS011;56269;51.738;21.652;2023-03-01T15:45:21;12.85;;;4.82;;
69161;SDS011;56269;51.738;21.652;2023-03-01T15:47:48;9.97;;;4.00;;
69161;SDS011;56269;51.738;21.652;2023-03-01T15:50:28;10.48;;;4.13;;
69161;SDS011;56269;51.738;21.652;2023-03-01T15:52:58;13.25;;;4.53;;
69161;SDS011;56269;51.738;21.652;2023-03-01T15:55:28;14.85;;;4.03;;
69161;SDS011;56269;51.738;21.652;2023-03-01T16:00:46;12.30;;;3.97;;
69161;SDS011;56269;51.738;21.652;2023-03-01T16:03:14;10.15;;;3.60;;
69161;SDS011;56269;51.738;21.652;2023-03-01T16:05:47;10.45;;;3.88;;
69161;SDS011;56269;51.738;21.652;2023-03-01T16:08:18;11.85;;;4.07;;
69161;SDS011;56269;51.738;21.652;2023-03-01T16:10:44;12.63;;;4.13;;
69161;SDS011;56269;51.738;21.652;2023-03-01T16:13:12;11.80;;;4.10;;
69161;SDS011;56269;51.738;21.652;2023-03-01T16:15:39;10.90;;;4.30;;
69161;SDS011;56269;51.738;21.652;2023-03-01T16:18:06;10.77;;;4.40;;
69161;SDS011;56269;51.738;21.652;2023-03-01T16:20:35;11.02;;;4.25;;